Time;durP1;ratioP1;P1;durP2;ratioP2;P2;SDS_P1;SDS_P2;PMS_P1;PMS_P2;Temp;Humidity;BMP_temperature;BMP_pressure;BME280_temperature;BME280_humidity;BME280_pressure;Samples;Min_cycle;Max_cycle;Signal;HPM_P1;HPM_P2
2021/09/17 00:00:59;;;;;;;18.05;11.48;;;;;;;17.39;79.89;97405.94;1749790;82;21121;-73
2021/09/17 00:03:25;;;;;;;16.93;10.90;;;;;;;17.40;80.25;97402.32;1740039;82;21048;-74
2021/09/17 00:05:52;;;;;;;13.13;10.48;;;;;;;17.39;79.95;97392.55;1734095;82;21004;-73
2021/09/17 00:08:19;;;;;;;13.70;10.50;;;;;;;17.40;80.10;97393.78;1747586;82;21005;-74
2021/09/17 00:10:46;;;;;;;17.23;10.20;;;;;;;17.43;80.06;97387.86;1749897;82;20988;-74
2021/09/17 00:13:13;;;;;;;18.05;10.75;;;;;;;17.41;80.60;97387.46;1749592;82;21001;-74
2021/09/17 00:15:39;;;;;;;14.38;9.53;;;;;;;17.44;80.01;97386.90;1739640;82;21562;-74
2021/09/17 00:18:06;;;;;;;19.92;10.32;;;;;;;17.47;79.75;97378.16;1749755;82;21002;-74
2021/09/17 00:20:32;;;;;;;13.28;9.53;;;;;;;17.51;79.69;97372.98;1723676;82;20957;-74
2021/09/17 00:22:59;;;;;;;13.83;9.78;;;;;;;17.54;79.49;97371.91;1720101;83;21013;-74
2021/09/17 00:25:25;;;;;;;16.80;9.55;;;;;;;17.57;79.37;97368.16;1708191;82;21398;-73
2021/09/17 00:27:52;;;;;;;16.70;10.63;;;;;;;17.53;79.39;97360.33;1747312;81;20988;-74
2021/09/17 00:30:19;;;;;;;16.65;9.98;;;;;;;17.52;79.02;97357.78;1736627;80;20983;-74
2021/09/17 00:32:46;;;;;;;16.07;10.38;;;;;;;17.53;79.30;97353.63;1705327;84;20985;-73
2021/09/17 00:35:14;;;;;;;14.40;10.60;;;;;;;17.56;79.16;97360.59;1696743;83;21448;-73
2021/09/17 00:37:40;;;;;;;17.65;11.08;;;;;;;17.57;78.45;97368.16;1700478;83;21055;-73
2021/09/17 00:40:09;;;;;;;16.10;11.30;;;;;;;17.55;78.89;97362.44;1727135;83;20968;-73
2021/09/17 00:42:37;;;;;;;16.90;10.03;;;;;;;17.57;78.60;97361.00;1729012;83;21027;-73
2021/09/17 00:45:09;;;;;;;12.90;10.53;;;;;;;17.57;78.54;97356.11;1729077;83;21016;-74
2021/09/17 00:47:36;;;;;;;16.07;10.20;;;;;;;17.59;78.81;97352.83;1728088;83;20967;-74
2021/09/17 00:50:10;;;;;;;15.35;10.88;;;;;;;17.61;78.66;97353.09;1729006;83;21004;-74
2021/09/17 00:52:37;;;;;;;15.88;10.68;;;;;;;17.59;78.82;97350.15;1725174;83;21475;-74
2021/09/17 00:55:06;;;;;;;17.05;11.30;;;;;;;17.54;79.07;97355.37;1716415;83;21409;-74
2021/09/17 00:57:35;;;;;;;17.15;10.95;;;;;;;17.52;78.31;97340.36;1700704;83;21004;-74
2021/09/17 01:00:10;;;;;;;17.70;11.20;;;;;;;17.47;79.01;97347.36;1716770;83;21016;-74
2021/09/17 01:02:38;;;;;;;16.40;11.85;;;;;;;17.40;79.71;97343.39;1699901;84;20996;-74
2021/09/17 01:05:08;;;;;;;18.87;12.30;;;;;;;17.32;79.61;97342.58;1701812;83;21003;-74
2021/09/17 01:07:35;;;;;;;15.93;10.80;;;;;;;17.30;79.06;97340.97;1702509;83;21378;-74
2021/09/17 01:10:04;;;;;;;17.37;11.35;;;;;;;17.26;79.82;97339.83;1719695;83;21063;-74
2021/09/17 01:12:31;;;;;;;14.25;11.75;;;;;;;17.26;78.70;97335.81;1693705;85;21004;-74
2021/09/17 01:14:59;;;;;;;14.68;11.33;;;;;;;17.27;79.90;97329.95;1694497;85;21087;-74
2021/09/17 01:17:35;;;;;;;16.93;11.48;;;;;;;17.25;79.24;97343.47;1724121;82;21433;-74
2021/09/17 01:20:06;;;;;;;20.35;12.03;;;;;;;17.24;79.79;97342.23;1732915;82;21064;-74
2021/09/17 01:22:34;;;;;;;13.78;11.08;;;;;;;17.23;79.49;97349.39;1720671;82;21061;-74
2021/09/17 01:25:00;;;;;;;14.90;11.12;;;;;;;17.21;79.44;97336.60;1736875;82;21009;-74
2021/09/17 01:27:27;;;;;;;16.10;11.25;;;;;;;17.21;79.28;97341.96;1719675;82;21072;-74
2021/09/17 01:29:54;;;;;;;14.63;10.03;;;;;;;17.22;79.11;97334.30;1719961;83;21031;-74
2021/09/17 01:32:21;;;;;;;14.58;9.38;;;;;;;17.23;79.54;97339.19;1720024;83;21044;-74
2021/09/17 01:34:47;;;;;;;16.02;10.70;;;;;;;17.26;79.25;97325.56;1715696;83;21012;-74
2021/09/17 01:37:13;;;;;;;13.62;10.70;;;;;;;17.31;78.71;97330.12;1689675;85;21446;-74
2021/09/17 01:39:40;;;;;;;14.85;9.60;;;;;;;17.35;78.63;97328.13;1689867;85;21028;-74
2021/09/17 01:42:07;;;;;;;13.80;9.43;;;;;;;17.40;79.67;97318.79;1690458;83;21107;-74
2021/09/17 01:44:39;;;;;;;16.40;8.70;;;;;;;17.40;79.45;97325.48;1732006;82;20961;-74
2021/09/17 01:47:07;;;;;;;14.83;9.55;;;;;;;17.44;79.18;97324.78;1745805;82;21029;-74
2021/09/17 01:49:35;;;;;;;16.90;9.55;;;;;;;17.49;79.18;97317.79;1720005;83;21040;-74
2021/09/17 01:52:03;;;;;;;14.38;8.63;;;;;;;17.55;78.91;97318.70;1720056;82;21032;-75
2021/09/17 01:54:29;;;;;;;10.82;9.20;;;;;;;17.60;78.76;97312.54;1719713;83;21032;-74
2021/09/17 01:56:56;;;;;;;11.00;8.55;;;;;;;17.65;78.67;97312.23;1720078;83;21481;-75
2021/09/17 01:59:22;;;;;;;11.28;8.70;;;;;;;17.66;78.92;97307.25;1719939;83;21033;-74
2021/09/17 02:01:49;;;;;;;15.98;8.98;;;;;;;17.70;78.69;97294.02;1720041;83;21036;-74
2021/09/17 02:04:17;;;;;;;12.53;8.88;;;;;;;17.71;78.58;97301.08;1720164;83;21036;-74
2021/09/17 02:06:43;;;;;;;13.28;8.78;;;;;;;17.71;78.56;97303.77;1726673;82;21467;-74
2021/09/17 02:09:10;;;;;;;14.83;9.68;;;;;;;17.74;78.79;97301.34;1733963;82;21004;-74
2021/09/17 02:11:36;;;;;;;15.80;9.65;;;;;;;17.74;78.55;97294.17;1727120;82;20969;-74
2021/09/17 02:14:03;;;;;;;12.85;9.78;;;;;;;17.75;78.60;97295.02;1738013;81;21008;-74
2021/09/17 02:16:30;;;;;;;14.50;10.10;;;;;;;17.73;78.37;97288.42;1720088;83;21009;-74
2021/09/17 02:18:57;;;;;;;15.68;10.03;;;;;;;17.72;78.37;97285.38;1693800;83;21338;-74
2021/09/17 02:21:23;;;;;;;15.72;10.05;;;;;;;17.71;79.77;97292.17;1694497;83;21465;-74
2021/09/17 02:23:50;;;;;;;16.37;10.00;;;;;;;17.61;79.12;97287.45;1719209;83;21021;-73
2021/09/17 02:26:18;;;;;;;16.00;12.03;;;;;;;17.59;79.04;97290.73;1719112;82;21080;-74
2021/09/17 02:28:45;;;;;;;15.95;11.88;;;;;;;17.54;79.85;97279.48;1702696;83;21012;-74
2021/09/17 02:31:12;;;;;;;19.98;11.25;;;;;;;17.51;79.48;97272.99;1705727;83;21461;-74
2021/09/17 02:33:38;;;;;;;15.18;10.85;;;;;;;17.46;80.98;97269.30;1731103;82;21094;-74
2021/09/17 02:36:05;;;;;;;17.48;11.12;;;;;;;17.38;80.03;97264.95;1719893;82;21008;-73
2021/09/17 02:38:32;;;;;;;16.67;11.05;;;;;;;17.33;83.10;97270.64;1716781;83;21047;-74
2021/09/17 02:40:58;;;;;;;14.18;11.05;;;;;;;17.27;82.48;97281.75;1720373;82;21465;-74
2021/09/17 02:43:25;;;;;;;16.25;11.12;;;;;;;17.19;83.42;97276.09;1725574;82;21020;-74
2021/09/17 02:45:51;;;;;;;15.80;11.75;;;;;;;17.13;81.62;97275.55;1720190;83;20997;-74
2021/09/17 02:48:17;;;;;;;17.85;11.68;;;;;;;17.09;81.59;97275.38;1723329;82;20965;-74
2021/09/17 02:50:44;;;;;;;18.20;12.37;;;;;;;17.07;81.87;97275.94;1715370;83;21041;-74
2021/09/17 02:53:11;;;;;;;16.95;11.60;;;;;;;17.07;81.43;97279.11;1720116;83;21076;-74
2021/09/17 02:55:37;;;;;;;17.67;12.60;;;;;;;17.04;81.61;97275.30;1720068;83;21060;-74
2021/09/17 02:58:05;;;;;;;16.70;11.65;;;;;;;17.01;82.35;97278.54;1731321;82;21021;-74
2021/09/17 03:00:32;;;;;;;27.05;12.20;;;;;;;16.97;81.50;97271.67;1730918;82;20997;-73
2021/09/17 03:02:59;;;;;;;14.90;11.78;;;;;;;16.94;81.98;97268.35;1720029;82;20985;-73
2021/09/17 03:05:25;;;;;;;15.90;11.93;;;;;;;16.90;81.97;97273.03;1720111;83;21066;-74
2021/09/17 03:07:52;;;;;;;17.05;11.30;;;;;;;16.89;82.14;97260.61;1748965;82;21036;-74
2021/09/17 03:10:19;;;;;;;14.15;9.93;;;;;;;16.90;83.08;97256.97;1749852;82;21000;-74
2021/09/17 03:12:45;;;;;;;16.85;10.70;;;;;;;16.91;82.30;97258.71;1734888;82;21048;-74
2021/09/17 03:15:12;;;;;;;16.90;10.18;;;;;;;16.96;82.26;97253.03;1689580;85;21410;-74
2021/09/17 03:17:39;;;;;;;17.07;10.63;;;;;;;16.99;82.72;97256.85;1689905;85;21065;-74
2021/09/17 03:20:06;;;;;;;13.58;9.73;;;;;;;17.00;84.91;97258.09;1689936;85;21005;-74
2021/09/17 03:22:33;;;;;;;14.20;9.98;;;;;;;17.04;84.44;97257.89;1716792;82;21035;-74
2021/09/17 03:24:59;;;;;;;12.82;9.10;;;;;;;17.06;83.10;97262.19;1728416;82;21643;-74
2021/09/17 03:27:26;;;;;;;16.00;9.55;;;;;;;17.09;84.09;97262.45;1716589;82;21008;-74
2021/09/17 03:29:52;;;;;;;13.55;10.00;;;;;;;17.14;83.50;97258.98;1697070;83;20997;-74
2021/09/17 03:32:18;;;;;;;18.17;10.32;;;;;;;17.18;83.65;97266.34;1710971;83;20981;-74
2021/09/17 03:34:46;;;;;;;20.05;10.30;;;;;;;17.19;85.15;97266.22;1719605;83;20997;-74
2021/09/17 03:37:13;;;;;;;15.15;10.50;;;;;;;17.21;84.07;97258.95;1719808;83;21020;-74
2021/09/17 03:39:40;;;;;;;16.00;10.13;;;;;;;17.24;83.92;97248.02;1719771;83;21019;-73
2021/09/17 03:42:07;;;;;;;17.98;10.55;;;;;;;17.26;83.76;97251.92;1719859;83;21013;-74
2021/09/17 03:44:34;;;;;;;13.65;10.53;;;;;;;17.28;84.45;97252.20;1692511;83;21073;-74
2021/09/17 03:47:01;;;;;;;21.50;10.13;;;;;;;17.32;83.84;97243.97;1689809;84;21044;-74
2021/09/17 03:49:28;;;;;;;13.58;9.63;;;;;;;17.32;85.77;97246.17;1740870;82;21088;-74
2021/09/17 03:51:56;;;;;;;14.00;9.95;;;;;;;17.35;84.47;97235.23;1726368;82;21028;-74
2021/09/17 03:54:27;;;;;;;18.27;10.18;;;;;;;17.39;84.19;97230.50;1719750;83;21378;-74
2021/09/17 03:56:53;;;;;;;19.12;10.35;;;;;;;17.37;84.49;97226.62;1719734;83;21092;-74
2021/09/17 03:59:20;;;;;;;18.77;11.60;;;;;;;17.37;84.15;97223.07;1720143;83;21012;-74
2021/09/17 04:01:47;;;;;;;19.52;11.28;;;;;;;17.38;84.32;97224.31;1719475;83;21492;-74
2021/09/17 04:04:14;;;;;;;15.95;11.38;;;;;;;17.37;83.98;97224.41;1719999;83;21386;-74
2021/09/17 04:06:42;;;;;;;17.35;11.48;;;;;;;17.36;84.31;97226.22;1719883;83;21489;-74
2021/09/17 04:09:10;;;;;;;15.10;12.58;;;;;;;17.34;84.40;97232.18;1720020;83;21055;-74
2021/09/17 04:11:38;;;;;;;22.77;12.88;;;;;;;17.33;84.35;97233.62;1719856;83;21000;-74
2021/09/17 04:14:04;;;;;;;23.18;12.68;;;;;;;17.33;84.11;97235.83;1722756;82;21025;-74
2021/09/17 04:16:31;;;;;;;15.72;12.78;;;;;;;17.27;83.93;97229.06;1732896;81;21111;-74
2021/09/17 04:18:57;;;;;;;21.95;13.90;;;;;;;17.25;85.02;97231.00;1720053;83;21009;-74
2021/09/17 04:21:27;;;;;;;18.70;13.80;;;;;;;17.22;84.29;97225.85;1698365;82;21082;-74
2021/09/17 04:23:53;;;;;;;21.95;14.63;;;;;;;17.18;87.11;97224.34;1695923;83;21049;-74
2021/09/17 04:26:22;;;;;;;21.68;14.80;;;;;;;17.13;85.49;97229.16;1719960;83;21055;-73
2021/09/17 04:28:52;;;;;;;21.10;15.03;;;;;;;17.08;84.40;97228.16;1699653;83;21437;-73
2021/09/17 04:31:19;;;;;;;21.70;15.58;;;;;;;17.08;84.63;97227.28;1710648;83;21042;-73
2021/09/17 04:33:45;;;;;;;22.07;17.98;;;;;;;17.08;85.33;97229.49;1670931;83;21003;-73
2021/09/17 04:36:12;;;;;;;25.02;17.23;;;;;;;17.07;84.85;97223.73;1668142;86;21378;-73
2021/09/17 04:38:38;;;;;;;22.40;17.85;;;;;;;17.08;84.92;97218.78;1689656;83;20964;-73
2021/09/17 04:41:04;;;;;;;25.82;18.15;;;;;;;17.10;84.40;97219.99;1697481;84;20991;-73
2021/09/17 04:43:31;;;;;;;22.32;18.60;;;;;;;17.11;84.36;97224.41;1726296;83;21528;-73
2021/09/17 04:45:57;;;;;;;25.32;18.27;;;;;;;17.12;84.21;97219.42;1682779;83;21408;-73
2021/09/17 04:48:24;;;;;;;28.47;18.57;;;;;;;17.12;84.29;97214.07;1697533;84;21000;-73
2021/09/17 04:50:51;;;;;;;25.05;17.70;;;;;;;17.13;85.89;97222.00;1697567;84;21023;-73
2021/09/17 04:53:17;;;;;;;27.27;18.12;;;;;;;17.14;85.24;97220.16;1697350;84;21054;-73
2021/09/17 04:55:44;;;;;;;27.30;18.45;;;;;;;17.18;84.42;97224.84;1697143;84;21404;-73
2021/09/17 04:58:10;;;;;;;24.32;18.40;;;;;;;17.22;84.41;97217.81;1696790;84;21079;-73
2021/09/17 05:00:38;;;;;;;24.65;18.73;;;;;;;17.27;84.65;97221.50;1697302;84;20999;-73
2021/09/17 05:03:06;;;;;;;21.90;17.02;;;;;;;17.30;85.04;97221.80;1709000;83;20992;-73
2021/09/17 05:05:33;;;;;;;28.73;18.20;;;;;;;17.36;85.04;97218.69;1708401;83;21079;-73
2021/09/17 05:07:59;;;;;;;22.45;16.32;;;;;;;17.44;84.20;97220.32;1697856;84;21000;-73
2021/09/17 05:10:26;;;;;;;22.15;16.17;;;;;;;17.50;84.43;97222.59;1697199;84;21503;-73
2021/09/17 05:12:53;;;;;;;22.13;15.40;;;;;;;17.59;84.41;97216.19;1697424;84;21417;-73
2021/09/17 05:15:19;;;;;;;24.12;15.75;;;;;;;17.66;84.52;97222.34;1697016;84;20952;-73
2021/09/17 05:17:46;;;;;;;21.70;14.33;;;;;;;17.77;84.75;97220.75;1697396;84;21035;-73
2021/09/17 05:20:14;;;;;;;21.15;14.20;;;;;;;17.86;84.38;97216.54;1696543;84;21000;-73
2021/09/17 05:22:41;;;;;;;22.20;13.22;;;;;;;17.93;84.35;97206.60;1697298;84;21418;-73
2021/09/17 05:25:09;;;;;;;19.77;13.08;;;;;;;18.01;84.18;97211.87;1697452;84;21023;-73
2021/09/17 05:27:36;;;;;;;17.27;12.35;;;;;;;18.07;84.12;97215.50;1702587;82;21021;-73
2021/09/17 05:30:05;;;;;;;16.50;13.15;;;;;;;18.15;83.73;97212.26;1723144;82;21004;-73
2021/09/17 05:32:32;;;;;;;16.73;12.47;;;;;;;18.20;83.81;97213.61;1738489;82;21410;-73
2021/09/17 05:34:59;;;;;;;20.95;12.68;;;;;;;18.27;83.45;97212.68;1713098;84;21021;-74
2021/09/17 05:37:25;;;;;;;18.17;12.90;;;;;;;18.30;83.29;97212.47;1712985;82;20993;-74
2021/09/17 05:39:52;;;;;;;20.92;13.98;;;;;;;18.33;83.38;97212.72;1694899;84;21029;-74
2021/09/17 05:42:20;;;;;;;21.60;14.40;;;;;;;18.38;83.13;97213.23;1696535;84;21067;-74
2021/09/17 05:44:46;;;;;;;23.15;15.83;;;;;;;18.41;83.11;97224.22;1695092;84;21018;-74
2021/09/17 05:47:13;;;;;;;22.48;15.63;;;;;;;18.43;82.82;97215.09;1712969;83;21036;-74
2021/09/17 05:49:39;;;;;;;19.30;14.58;;;;;;;18.49;83.04;97222.31;1712960;83;20962;-74
2021/09/17 05:52:06;;;;;;;23.65;15.65;;;;;;;18.54;82.69;97224.16;1690568;84;21009;-74
2021/09/17 05:54:32;;;;;;;22.22;15.40;;;;;;;18.59;82.65;97228.70;1704289;82;21028;-74
2021/09/17 05:57:00;;;;;;;19.65;14.25;;;;;;;18.59;82.19;97228.22;1712722;82;21017;-75
2021/09/17 05:59:27;;;;;;;22.87;15.08;;;;;;;18.57;81.89;97227.97;1712744;83;20950;-75
2021/09/17 06:01:53;;;;;;;17.00;13.78;;;;;;;18.53;81.78;97231.38;1712862;84;21001;-75
2021/09/17 06:04:21;;;;;;;17.15;14.47;;;;;;;18.50;81.92;97228.04;1712852;82;21108;-74
2021/09/17 06:06:47;;;;;;;19.37;15.53;;;;;;;18.44;81.69;97231.55;1712969;83;21000;-74
2021/09/17 06:09:14;;;;;;;20.30;15.00;;;;;;;18.42;81.81;97232.16;1712035;84;21001;-74
2021/09/17 06:11:41;;;;;;;21.93;16.07;;;;;;;18.42;81.75;97221.43;1712842;83;22145;-74
2021/09/17 06:14:08;;;;;;;20.52;16.12;;;;;;;18.43;81.92;97229.84;1712978;84;21008;-74
2021/09/17 06:16:34;;;;;;;23.42;16.50;;;;;;;18.43;81.98;97227.16;1713170;83;21088;-74
2021/09/17 06:19:02;;;;;;;20.85;15.80;;;;;;;18.41;82.37;97234.95;1723072;82;21522;-74
2021/09/17 06:21:32;;;;;;;21.60;16.07;;;;;;;18.37;81.98;97235.67;1732605;82;21223;-75
2021/09/17 06:24:00;;;;;;;20.92;16.35;;;;;;;18.32;82.19;97235.99;1732814;82;21382;-75
2021/09/17 06:26:31;;;;;;;24.67;16.57;;;;;;;18.23;82.38;97235.33;1740213;82;21473;-74
2021/09/17 06:28:59;;;;;;;23.87;15.90;;;;;;;18.16;82.85;97236.76;1729869;82;21075;-74
2021/09/17 06:31:27;;;;;;;26.73;16.87;;;;;;;18.10;82.97;97238.55;1718311;82;21082;-75
2021/09/17 06:33:53;;;;;;;24.63;17.12;;;;;;;18.06;82.99;97240.08;1696585;84;21047;-75
2021/09/17 06:36:20;;;;;;;24.40;18.05;;;;;;;18.03;82.82;97238.11;1678391;84;21075;-75
2021/09/17 06:38:47;;;;;;;23.12;18.48;;;;;;;17.98;82.90;97234.40;1714273;84;20980;-73
2021/09/17 06:41:14;;;;;;;22.55;17.20;;;;;;;17.94;83.26;97227.07;1704465;84;21449;-74
2021/09/17 06:43:41;;;;;;;21.68;16.62;;;;;;;17.92;83.25;97216.09;1689470;85;21028;-75
2021/09/17 06:46:07;;;;;;;20.40;16.65;;;;;;;17.94;83.30;97216.85;1689396;85;21456;-74
2021/09/17 06:48:34;;;;;;;22.82;16.73;;;;;;;17.95;83.88;97217.22;1689555;83;20988;-74
2021/09/17 06:51:01;;;;;;;23.05;15.90;;;;;;;17.98;85.46;97210.77;1701037;83;21030;-74
2021/09/17 06:53:29;;;;;;;22.22;15.48;;;;;;;18.01;84.98;97208.72;1697630;84;20985;-74
2021/09/17 06:55:55;;;;;;;19.92;15.30;;;;;;;18.05;84.95;97213.37;1689642;84;21043;-75
2021/09/17 06:58:21;;;;;;;21.27;14.83;;;;;;;18.07;84.67;97208.80;1697559;84;21412;-76
2021/09/17 07:00:48;;;;;;;20.30;15.48;;;;;;;18.09;85.46;97212.72;1697274;84;21103;-75
2021/09/17 07:03:14;;;;;;;21.17;15.13;;;;;;;18.11;84.97;97206.27;1696844;84;20975;-75
2021/09/17 07:05:40;;;;;;;23.92;15.50;;;;;;;18.14;84.98;97211.89;1697564;84;21106;-74
2021/09/17 07:08:09;;;;;;;21.00;15.58;;;;;;;18.17;85.24;97206.28;1697559;84;21044;-75
2021/09/17 07:10:39;;;;;;;24.32;16.10;;;;;;;18.27;86.13;97210.50;1697532;84;21520;-74
2021/09/17 07:13:07;;;;;;;23.70;16.20;;;;;;;18.43;85.52;97206.17;1698950;83;21035;-73
2021/09/17 07:15:34;;;;;;;24.85;16.42;;;;;;;18.54;86.17;97204.04;1688119;83;21003;-73
2021/09/17 07:18:05;;;;;;;22.32;16.60;;;;;;;18.68;86.12;97202.52;1697601;83;20995;-74
2021/09/17 07:20:32;;;;;;;22.55;15.98;;;;;;;18.80;85.81;97202.07;1696981;84;21054;-74
2021/09/17 07:22:58;;;;;;;18.95;15.68;;;;;;;18.90;85.69;97203.58;1696404;84;21008;-73
2021/09/17 07:25:26;;;;;;;28.25;21.60;;;;;;;19.04;85.59;97205.67;1691534;84;20933;-73
2021/09/17 07:27:52;;;;;;;24.32;17.42;;;;;;;19.16;85.62;97210.61;1693304;83;21054;-74
2021/09/17 07:30:19;;;;;;;24.27;17.75;;;;;;;19.20;85.03;97211.61;1696727;84;21023;-74
2021/09/17 07:32:46;;;;;;;27.35;17.48;;;;;;;19.22;84.88;97218.22;1695037;84;21018;-72
2021/09/17 07:35:12;;;;;;;29.37;19.60;;;;;;;19.24;84.52;97210.87;1694518;84;21071;-72
2021/09/17 07:37:39;;;;;;;23.18;18.50;;;;;;;19.23;84.67;97219.41;1667514;86;21513;-72
2021/09/17 07:40:07;;;;;;;28.62;20.50;;;;;;;19.09;84.00;97223.18;1706711;83;21016;-72
2021/09/17 07:42:34;;;;;;;26.97;20.60;;;;;;;19.09;84.11;97209.75;1686668;83;21028;-72
2021/09/17 07:45:01;;;;;;;29.25;20.70;;;;;;;19.21;84.29;97216.48;1721866;83;21003;-72
2021/09/17 07:47:27;;;;;;;30.40;21.07;;;;;;;19.25;84.43;97221.98;1726099;83;21048;-73
2021/09/17 07:49:54;;;;;;;30.62;21.77;;;;;;;19.29;83.96;97215.88;1714019;83;21083;-72
2021/09/17 07:52:21;;;;;;;26.62;21.15;;;;;;;19.35;83.85;97216.77;1726134;83;21464;-72
2021/09/17 07:54:47;;;;;;;30.68;22.82;;;;;;;19.24;84.97;97227.00;1689774;83;21016;-72
2021/09/17 07:57:14;;;;;;;26.37;21.57;;;;;;;19.28;84.08;97215.05;1667787;84;21004;-73
2021/09/17 07:59:41;;;;;;;30.72;22.35;;;;;;;19.30;84.08;97210.39;1667618;86;21078;-74
2021/09/17 08:02:08;;;;;;;29.02;22.90;;;;;;;19.38;83.64;97205.28;1676459;84;21003;-74
2021/09/17 08:04:38;;;;;;;34.13;24.82;;;;;;;19.42;84.15;97208.58;1705410;83;20996;-74
2021/09/17 08:07:03;;;;;;;29.63;22.48;;;;;;;19.51;84.09;97208.33;1683703;83;21000;-74
2021/09/17 08:09:29;;;;;;;36.13;24.27;;;;;;;19.57;83.72;97214.59;1696959;84;21024;-74
2021/09/17 08:11:56;;;;;;;31.75;21.20;;;;;;;19.55;83.15;97207.12;1708789;83;21023;-75
2021/09/17 08:14:22;;;;;;;30.82;22.30;;;;;;;19.57;83.07;97201.63;1726130;83;21115;-74
2021/09/17 08:16:49;;;;;;;27.22;20.65;;;;;;;19.59;83.56;97202.38;1726144;83;21020;-74
2021/09/17 08:19:15;;;;;;;30.60;21.33;;;;;;;19.59;83.78;97197.84;1674992;83;21003;-75
2021/09/17 08:21:43;;;;;;;27.50;19.42;;;;;;;19.63;83.41;97189.91;1667391;86;21051;-74
2021/09/17 08:24:16;;;;;;;27.22;19.67;;;;;;;19.69;84.53;97185.02;1685114;84;21032;-75
2021/09/17 08:26:47;;;;;;;26.12;18.85;;;;;;;19.73;84.03;97175.22;1696818;83;21000;-75
2021/09/17 08:29:15;;;;;;;27.42;19.82;;;;;;;19.78;84.60;97175.73;1705232;83;21027;-75
2021/09/17 08:31:44;;;;;;;25.72;19.75;;;;;;;19.81;83.52;97165.22;1692288;84;21492;-74
2021/09/17 08:34:12;;;;;;;28.05;20.85;;;;;;;19.90;83.89;97163.10;1714987;83;21004;-74
2021/09/17 08:36:39;;;;;;;24.00;19.12;;;;;;;19.95;84.05;97162.74;1706263;83;20964;-75
2021/09/17 08:39:07;;;;;;;29.57;18.15;;;;;;;20.01;83.77;97160.92;1697037;84;21071;-75
2021/09/17 08:41:37;;;;;;;28.02;17.80;;;;;;;20.09;83.74;97166.17;1695866;84;21456;-75
2021/09/17 08:44:05;;;;;;;27.75;17.50;;;;;;;20.18;83.58;97165.42;1696732;84;20999;-75
2021/09/17 08:46:32;;;;;;;28.55;17.00;;;;;;;20.32;83.40;97165.62;1696709;84;21023;-73
2021/09/17 08:49:03;;;;;;;25.32;16.42;;;;;;;20.46;83.29;97149.66;1696965;84;21016;-74
2021/09/17 08:51:30;;;;;;;25.48;15.32;;;;;;;20.60;83.12;97148.98;1671799;84;21020;-74
2021/09/17 08:53:57;;;;;;;27.55;15.83;;;;;;;20.75;83.02;97149.03;1688693;83;21035;-74
2021/09/17 08:56:23;;;;;;;25.23;16.50;;;;;;;20.88;82.16;97146.17;1709649;83;21010;-74
2021/09/17 08:58:50;;;;;;;27.40;17.12;;;;;;;21.01;82.36;97139.74;1723905;83;21527;-74
2021/09/17 09:01:32;;;;;;;30.52;20.85;;;;;;;21.13;81.58;97141.87;1682118;83;21055;-74
2021/09/17 09:04:03;;;;;;;31.05;22.37;;;;;;;21.15;81.11;97142.09;1668051;86;21012;-74
2021/09/17 09:06:42;;;;;;;33.75;22.62;;;;;;;21.28;81.55;97131.09;1693210;84;21015;-75
2021/09/17 09:09:21;;;;;;;27.82;19.62;;;;;;;21.50;80.66;97130.05;1697215;84;21429;-74
2021/09/17 09:11:50;;;;;;;22.05;16.97;;;;;;;21.64;80.32;97125.28;1696819;84;21504;-74
2021/09/17 09:14:18;;;;;;;25.88;14.85;;;;;;;21.71;79.73;97124.24;1697097;84;21055;-74
2021/09/17 09:16:49;;;;;;;24.35;15.10;;;;;;;21.69;79.21;97132.47;1693467;84;21035;-74
2021/09/17 09:19:34;;;;;;;26.60;14.93;;;;;;;21.68;79.18;97129.90;1698767;83;21333;-74
2021/09/17 09:22:10;;;;;;;25.43;15.20;;;;;;;21.64;79.11;97130.67;1691109;82;21334;-74
2021/09/17 09:24:44;;;;;;;26.73;15.68;;;;;;;21.53;78.62;97128.06;1687806;84;21023;-74
2021/09/17 09:27:20;;;;;;;28.60;14.18;;;;;;;21.45;78.75;97126.91;1699236;84;21027;-75
2021/09/17 09:29:51;;;;;;;26.40;16.15;;;;;;;21.37;78.05;97132.12;1655584;84;21080;-76
2021/09/17 09:32:28;;;;;;;21.57;15.50;;;;;;;21.25;78.97;97117.05;1628058;87;21506;-75
2021/09/17 09:34:59;;;;;;;22.87;15.63;;;;;;;21.25;78.90;97114.34;1658993;86;21036;-74
2021/09/17 09:37:33;;;;;;;26.77;15.80;;;;;;;21.30;78.92;97106.71;1629365;87;21430;-75
2021/09/17 09:40:07;;;;;;;31.30;16.55;;;;;;;21.30;78.84;97106.71;1642306;86;21083;-75
2021/09/17 09:42:47;;;;;;;21.23;14.45;;;;;;;21.35;78.87;97103.95;1699431;84;21039;-75
2021/09/17 09:45:20;;;;;;;23.98;15.55;;;;;;;21.40;78.91;97110.30;1662563;85;21075;-74
2021/09/17 09:47:56;;;;;;;21.75;15.08;;;;;;;21.39;78.96;97109.94;1686443;85;21023;-75
2021/09/17 09:50:30;;;;;;;27.62;15.10;;;;;;;21.46;78.85;97106.19;1654791;87;21053;-75
2021/09/17 09:53:02;;;;;;;23.90;15.72;;;;;;;21.46;78.72;97115.14;1682313;85;21059;-75
2021/09/17 09:55:30;;;;;;;24.55;14.80;;;;;;;21.45;78.76;97104.00;1626313;88;20990;-74
2021/09/17 09:57:57;;;;;;;26.77;15.83;;;;;;;21.48;78.72;97106.44;1670148;85;21048;-74
2021/09/17 10:00:27;;;;;;;27.20;14.83;;;;;;;21.50;78.67;97095.02;1628667;87;20977;-76
2021/09/17 10:02:55;;;;;;;26.48;14.50;;;;;;;21.54;78.91;97086.14;1632981;87;21049;-75
2021/09/17 10:05:26;;;;;;;26.90;14.40;;;;;;;21.57;78.92;97077.80;1664714;85;21008;-74
2021/09/17 10:07:50;;;;;;;31.00;15.38;;;;;;;21.59;79.06;97066.36;1655228;86;21053;-75
2021/09/17 10:10:17;;;;;;;21.87;13.88;;;;;;;21.62;78.96;97073.33;1668590;84;21023;-74
2021/09/17 10:12:46;;;;;;;26.23;13.98;;;;;;;21.73;78.94;97073.26;1655104;87;21096;-74
2021/09/17 10:15:16;;;;;;;25.10;12.98;;;;;;;21.84;78.87;97075.48;1694084;84;21444;-74
2021/09/17 10:17:51;;;;;;;19.77;11.15;;;;;;;22.00;78.78;97068.16;1665316;85;21017;-74
2021/09/17 10:20:19;;;;;;;25.30;11.48;;;;;;;22.13;78.44;97062.00;1686593;85;21008;-74
2021/09/17 10:22:46;;;;;;;20.43;11.70;;;;;;;22.36;78.37;97056.80;1655447;86;21077;-73
2021/09/17 10:25:25;;;;;;;23.10;10.70;;;;;;;22.61;77.82;97061.28;1681337;85;21417;-75
2021/09/17 10:28:15;;;;;;;17.17;9.53;;;;;;;22.81;77.60;97054.87;1652322;87;20993;-75
2021/09/17 10:30:43;;;;;;;19.48;8.85;;;;;;;23.27;76.83;97043.31;1682465;85;21043;-75
2021/09/17 10:33:26;;;;;;;23.00;8.40;;;;;;;23.27;76.83;97043.31;1693493;83;21055;-74
2021/09/17 10:35:54;;;;;;;18.90;7.95;;;;;;;23.75;75.37;97049.97;1704362;83;21501;-73
2021/09/17 10:38:27;;;;;;;18.62;7.67;;;;;;;24.57;73.73;97045.00;1679996;85;21374;-73
2021/09/17 10:41:04;;;;;;;20.97;7.17;;;;;;;25.44;70.65;97044.17;1678081;85;21028;-73
2021/09/17 10:43:49;;;;;;;22.40;7.35;;;;;;;25.78;67.50;97038.89;1714087;84;21512;-74
2021/09/17 10:46:28;;;;;;;18.10;7.65;;;;;;;25.64;67.90;97043.08;1673377;84;21020;-73
2021/09/17 10:48:57;;;;;;;18.17;6.33;;;;;;;25.41;66.84;97035.00;1667208;85;21024;-74
2021/09/17 10:51:37;;;;;;;19.82;6.47;;;;;;;25.40;67.55;97041.44;1684568;84;20988;-73
2021/09/17 10:54:14;;;;;;;17.32;5.87;;;;;;;25.74;66.85;97041.59;1694958;84;21441;-74
2021/09/17 10:56:52;;;;;;;16.48;6.33;;;;;;;26.32;64.97;97038.47;1696657;84;21027;-74
2021/09/17 10:59:25;;;;;;;16.12;6.47;;;;;;;26.49;64.57;97040.68;1696091;84;20984;-74
2021/09/17 11:02:03;;;;;;;15.60;6.03;;;;;;;26.48;64.37;97035.41;1715179;83;21472;-74
2021/09/17 11:04:40;;;;;;;13.80;6.40;;;;;;;26.28;62.97;97028.96;1688711;83;21438;-73
2021/09/17 11:07:32;;;;;;;17.77;7.08;;;;;;;26.08;63.74;97022.47;1714239;82;21540;-74
2021/09/17 11:09:57;;;;;;;17.70;6.37;;;;;;;25.94;63.98;97013.13;1716957;82;21040;-73
2021/09/17 11:12:32;;;;;;;20.32;6.65;;;;;;;25.71;63.14;97011.56;1670825;85;21027;-74
2021/09/17 11:15:19;;;;;;;15.90;6.42;;;;;;;25.46;63.17;97014.18;1684679;85;21492;-74
2021/09/17 11:17:58;;;;;;;18.07;6.30;;;;;;;25.31;64.03;97011.23;1669688;85;21023;-74
2021/09/17 11:20:31;;;;;;;14.35;6.65;;;;;;;25.13;63.93;97004.06;1683976;85;21478;-75
2021/09/17 11:23:05;;;;;;;14.70;6.73;;;;;;;25.47;63.92;96998.24;1668666;85;21047;-74
2021/09/17 11:25:40;;;;;;;19.90;6.67;;;;;;;25.88;62.76;96999.38;1716247;83;22160;-74